Terminal Aerodrome Forecast
Issued by NWS

Home | Current Version | Previous Version | Text Only | Print | Product List | Glossary On
Versions: 1 2 3 4 5 6 7 8 9 10 11 12 13 14
000
FTAK31 PAJN 301100
TAFAJN
TAF
PAJN 301123Z 3012/3112 08007KT P6SM -SHRA SCT015 BKN030 OVC050
     FM301600 VRB04KT P6SM -SHRA BCFG SCT005 SCT025 OVC050
     FM302000 13006KT P6SM VCSH SCT025 BKN050
     FM310200 06005KT P6SM BKN100
     FM311000 VRB02KT P6SM VCFG SCT002 BKN100=

USA.gov is the U.S. government's official web portal to all federal, state and local government web resources and services.